Aérodrome :
LOGIN :

S'inscrire | Disclaimer

   EN    FR    IT 

 










Légende :    VFR   VFR Marginal   IFR   IFR Intensif   IFR Très Intensif
Visi : 
Plafond : 
>= 8 km
>= 3000ft
5 à 8 km
1000 à 3000 ft
1500m à 5 km
500 à 1000 ft
800 à 1500m
200 à 500 ft
< 800m
< 200 ft
Symboles :   Orages  Brouillard  Fortes neiges  Fortes précipitations  Vent > 20 kt
SIGMETs :   Divers  Orages  Givrage  Turbulence  Onde Orograph.  Cendres Volcan.







- Altitude de l'aérodrome : 726 ft
- Code IATA : DIJ
- Voir les cartes d'approche


LFSD - Dijon

DERNIER METAR :
  • 131300Z AUTO 20016KT 9999 FEW010 OVC034 02/01 Q1011

METARs EXPIRÉS :
  • 131230Z AUTO 20016KT 9999 -RA SCT029/// BKN037/// BKN043/// ///TCU 02/01 Q1011
  • 131200Z AUTO 18014KT 6000 -SNRA SCT035/// BKN043/// OVC052/// ///CB 02/M00 Q1012
  • 131130Z AUTO 20013KT 9999 FEW027/// BKN033/// BKN040/// ///CB 02/M01 Q1013
  • 131100Z AUTO 20014KT 9999 FEW038/// BKN060/// OVC072/// ///TCU 03/M01 Q1014
  • 131030Z AUTO 20011KT CAVOK 02/M01 Q1014
  • 131000Z AUTO 20011KT CAVOK 02/M01 Q1015

Prévision TAF périmée.
Pas de NOTAMs connus pour ce terrain.



MET'MAP, la Météo Aéronautique d'un coup d'oeil ! - Copyright ORBIFLY Décembre 2007 - Disclaimer

ORBIFLY MET'MAP TEAM :

Programmation & Développement : Alexandra Zaïnal
Conception & Développement : Baudouin d'Aumeries
Co-Programmation & Développement : Marc-Olivier Méhu
Soutien technique & logistique : Manuel Goepfert

Contact : metmap@orbifly.com




SOURCES & CREDITS :

   NOAA